sensor_id;sensor_type;location;lat;lon;timestamp;P1;durP1;ratioP1;P2;durP2;ratioP2
26269;SDS011;15937;50.612;6.656;2024-01-27T00:02:54;18.55;;;2.85;;
26269;SDS011;15937;50.612;6.656;2024-01-27T00:06:56;15.73;;;3.57;;
26269;SDS011;15937;50.612;6.656;2024-01-27T00:11:00;13.50;;;2.90;;
26269;SDS011;15937;50.612;6.656;2024-01-27T00:15:02;29.63;;;3.13;;
26269;SDS011;15937;50.612;6.656;2024-01-27T00:19:04;21.52;;;2.95;;
26269;SDS011;15937;50.612;6.656;2024-01-27T00:23:07;19.37;;;3.17;;
26269;SDS011;15937;50.612;6.656;2024-01-27T00:27:09;15.30;;;3.38;;
26269;SDS011;15937;50.612;6.656;2024-01-27T00:31:12;15.82;;;2.28;;
26269;SDS011;15937;50.612;6.656;2024-01-27T00:35:14;23.70;;;3.33;;
26269;SDS011;15937;50.612;6.656;2024-01-27T00:39:17;18.50;;;2.70;;
26269;SDS011;15937;50.612;6.656;2024-01-27T00:43:20;9.00;;;2.70;;
26269;SDS011;15937;50.612;6.656;2024-01-27T00:47:22;16.50;;;2.92;;
26269;SDS011;15937;50.612;6.656;2024-01-27T00:51:24;8.30;;;2.72;;
26269;SDS011;15937;50.612;6.656;2024-01-27T00:55:26;14.88;;;2.72;;
26269;SDS011;15937;50.612;6.656;2024-01-27T00:59:28;20.17;;;2.90;;
26269;SDS011;15937;50.612;6.656;2024-01-27T01:03:30;25.67;;;3.38;;
26269;SDS011;15937;50.612;6.656;2024-01-27T01:07:32;13.80;;;3.70;;
26269;SDS011;15937;50.612;6.656;2024-01-27T01:11:34;9.48;;;2.75;;
26269;SDS011;15937;50.612;6.656;2024-01-27T01:15:48;15.77;;;3.15;;
26269;SDS011;15937;50.612;6.656;2024-01-27T01:19:57;16.02;;;2.83;;
26269;SDS011;15937;50.612;6.656;2024-01-27T01:24:10;18.33;;;3.42;;
26269;SDS011;15937;50.612;6.656;2024-01-27T01:28:16;16.67;;;2.78;;
26269;SDS011;15937;50.612;6.656;2024-01-27T01:32:18;26.65;;;3.85;;
26269;SDS011;15937;50.612;6.656;2024-01-27T01:36:20;16.50;;;3.75;;
26269;SDS011;15937;50.612;6.656;2024-01-27T01:40:22;19.10;;;2.30;;
26269;SDS011;15937;50.612;6.656;2024-01-27T01:44:29;6.23;;;1.87;;
26269;SDS011;15937;50.612;6.656;2024-01-27T01:48:32;18.88;;;3.58;;
26269;SDS011;15937;50.612;6.656;2024-01-27T01:52:44;17.15;;;2.88;;
26269;SDS011;15937;50.612;6.656;2024-01-27T01:56:48;13.48;;;2.90;;
26269;SDS011;15937;50.612;6.656;2024-01-27T02:00:51;14.17;;;3.33;;
26269;SDS011;15937;50.612;6.656;2024-01-27T02:04:52;15.77;;;3.05;;
26269;SDS011;15937;50.612;6.656;2024-01-27T02:08:55;16.23;;;2.23;;
26269;SDS011;15937;50.612;6.656;2024-01-27T02:12:59;21.17;;;3.85;;
26269;SDS011;15937;50.612;6.656;2024-01-27T02:17:03;15.35;;;3.03;;
26269;SDS011;15937;50.612;6.656;2024-01-27T02:21:06;14.97;;;2.80;;
26269;SDS011;15937;50.612;6.656;2024-01-27T02:25:08;8.67;;;2.60;;
26269;SDS011;15937;50.612;6.656;2024-01-27T02:29:10;14.70;;;2.80;;
26269;SDS011;15937;50.612;6.656;2024-01-27T02:33:12;25.15;;;2.92;;
26269;SDS011;15937;50.612;6.656;2024-01-27T02:37:14;8.98;;;2.33;;
26269;SDS011;15937;50.612;6.656;2024-01-27T02:41:16;35.33;;;2.90;;
26269;SDS011;15937;50.612;6.656;2024-01-27T02:45:46;12.95;;;2.58;;
26269;SDS011;15937;50.612;6.656;2024-01-27T02:49:48;12.25;;;2.30;;
26269;SDS011;15937;50.612;6.656;2024-01-27T02:53:53;15.90;;;2.72;;
26269;SDS011;15937;50.612;6.656;2024-01-27T02:57:56;14.83;;;3.10;;
26269;SDS011;15937;50.612;6.656;2024-01-27T03:01:58;7.23;;;2.30;;
26269;SDS011;15937;50.612;6.656;2024-01-27T03:06:01;12.77;;;3.20;;
26269;SDS011;15937;50.612;6.656;2024-01-27T03:10:07;19.48;;;2.90;;
26269;SDS011;15937;50.612;6.656;2024-01-27T03:14:09;15.65;;;2.45;;
26269;SDS011;15937;50.612;6.656;2024-01-27T03:18:12;14.00;;;2.55;;
26269;SDS011;15937;50.612;6.656;2024-01-27T03:22:15;10.32;;;2.92;;
26269;SDS011;15937;50.612;6.656;2024-01-27T03:26:17;9.40;;;2.50;;
26269;SDS011;15937;50.612;6.656;2024-01-27T03:30:25;21.55;;;2.50;;
26269;SDS011;15937;50.612;6.656;2024-01-27T03:34:27;14.65;;;2.65;;
26269;SDS011;15937;50.612;6.656;2024-01-27T03:38:29;11.63;;;3.35;;
26269;SDS011;15937;50.612;6.656;2024-01-27T03:42:31;11.63;;;3.13;;
26269;SDS011;15937;50.612;6.656;2024-01-27T03:46:34;13.35;;;3.25;;
26269;SDS011;15937;50.612;6.656;2024-01-27T03:50:46;16.75;;;2.72;;
26269;SDS011;15937;50.612;6.656;2024-01-27T03:54:48;16.55;;;2.40;;
26269;SDS011;15937;50.612;6.656;2024-01-27T03:58:51;10.73;;;2.58;;
26269;SDS011;15937;50.612;6.656;2024-01-27T04:02:53;13.13;;;2.40;;
26269;SDS011;15937;50.612;6.656;2024-01-27T04:06:55;8.95;;;1.90;;
26269;SDS011;15937;50.612;6.656;2024-01-27T04:10:57;20.08;;;2.90;;
26269;SDS011;15937;50.612;6.656;2024-01-27T04:14:59;29.42;;;3.15;;
26269;SDS011;15937;50.612;6.656;2024-01-27T04:19:08;10.82;;;2.20;;
26269;SDS011;15937;50.612;6.656;2024-01-27T04:23:10;11.48;;;2.00;;
26269;SDS011;15937;50.612;6.656;2024-01-27T04:27:14;17.40;;;2.60;;
26269;SDS011;15937;50.612;6.656;2024-01-27T04:31:16;15.45;;;2.58;;
26269;SDS011;15937;50.612;6.656;2024-01-27T04:35:19;18.80;;;2.90;;
26269;SDS011;15937;50.612;6.656;2024-01-27T04:39:21;19.37;;;2.93;;
26269;SDS011;15937;50.612;6.656;2024-01-27T04:43:23;17.75;;;2.72;;
26269;SDS011;15937;50.612;6.656;2024-01-27T04:47:25;15.38;;;2.38;;
26269;SDS011;15937;50.612;6.656;2024-01-27T04:51:29;7.28;;;2.38;;
26269;SDS011;15937;50.612;6.656;2024-01-27T04:55:31;19.08;;;2.92;;
26269;SDS011;15937;50.612;6.656;2024-01-27T04:59:33;17.58;;;3.53;;
26269;SDS011;15937;50.612;6.656;2024-01-27T05:03:37;11.38;;;2.97;;
26269;SDS011;15937;50.612;6.656;2024-01-27T05:07:40;10.52;;;3.10;;
26269;SDS011;15937;50.612;6.656;2024-01-27T05:11:42;11.53;;;2.53;;
26269;SDS011;15937;50.612;6.656;2024-01-27T05:15:47;11.63;;;2.40;;
26269;SDS011;15937;50.612;6.656;2024-01-27T05:19:51;11.40;;;2.80;;
26269;SDS011;15937;50.612;6.656;2024-01-27T05:23:56;7.65;;;2.40;;
26269;SDS011;15937;50.612;6.656;2024-01-27T05:28:00;13.60;;;2.85;;
26269;SDS011;15937;50.612;6.656;2024-01-27T05:32:03;17.67;;;2.88;;
26269;SDS011;15937;50.612;6.656;2024-01-27T05:36:06;16.60;;;3.00;;
26269;SDS011;15937;50.612;6.656;2024-01-27T05:40:10;16.33;;;2.78;;
26269;SDS011;15937;50.612;6.656;2024-01-27T05:44:13;20.48;;;2.60;;
26269;SDS011;15937;50.612;6.656;2024-01-27T05:48:15;9.00;;;2.38;;
26269;SDS011;15937;50.612;6.656;2024-01-27T05:52:19;11.93;;;2.55;;
26269;SDS011;15937;50.612;6.656;2024-01-27T05:56:25;11.13;;;2.47;;
26269;SDS011;15937;50.612;6.656;2024-01-27T06:00:32;11.40;;;3.35;;
26269;SDS011;15937;50.612;6.656;2024-01-27T06:04:35;14.77;;;3.53;;
26269;SDS011;15937;50.612;6.656;2024-01-27T06:08:40;15.65;;;3.30;;
26269;SDS011;15937;50.612;6.656;2024-01-27T06:12:43;15.77;;;3.15;;
26269;SDS011;15937;50.612;6.656;2024-01-27T06:16:51;13.05;;;2.10;;
26269;SDS011;15937;50.612;6.656;2024-01-27T06:20:59;8.57;;;2.33;;
26269;SDS011;15937;50.612;6.656;2024-01-27T06:25:01;23.48;;;3.05;;
26269;SDS011;15937;50.612;6.656;2024-01-27T06:29:06;10.55;;;2.72;;
26269;SDS011;15937;50.612;6.656;2024-01-27T06:33:08;21.67;;;3.67;;
26269;SDS011;15937;50.612;6.656;2024-01-27T06:37:10;14.45;;;2.78;;
26269;SDS011;15937;50.612;6.656;2024-01-27T06:41:16;14.70;;;3.58;;
26269;SDS011;15937;50.612;6.656;2024-01-27T06:45:18;18.87;;;3.10;;
26269;SDS011;15937;50.612;6.656;2024-01-27T06:49:20;13.57;;;2.83;;
26269;SDS011;15937;50.612;6.656;2024-01-27T06:53:23;19.27;;;3.40;;
26269;SDS011;15937;50.612;6.656;2024-01-27T06:57:25;17.10;;;3.00;;
26269;SDS011;15937;50.612;6.656;2024-01-27T07:01:27;14.93;;;3.33;;
26269;SDS011;15937;50.612;6.656;2024-01-27T07:05:29;15.00;;;3.43;;
26269;SDS011;15937;50.612;6.656;2024-01-27T07:09:34;10.90;;;2.58;;
26269;SDS011;15937;50.612;6.656;2024-01-27T07:13:38;11.75;;;2.65;;
26269;SDS011;15937;50.612;6.656;2024-01-27T07:17:40;17.67;;;3.10;;
26269;SDS011;15937;50.612;6.656;2024-01-27T07:21:42;22.00;;;3.58;;
26269;SDS011;15937;50.612;6.656;2024-01-27T07:25:44;16.25;;;4.28;;
26269;SDS011;15937;50.612;6.656;2024-01-27T07:29:46;19.10;;;4.17;;
26269;SDS011;15937;50.612;6.656;2024-01-27T07:33:48;20.13;;;3.87;;
26269;SDS011;15937;50.612;6.656;2024-01-27T07:37:50;9.47;;;2.97;;
26269;SDS011;15937;50.612;6.656;2024-01-27T07:41:52;16.17;;;3.63;;
26269;SDS011;15937;50.612;6.656;2024-01-27T07:45:54;8.10;;;2.78;;
26269;SDS011;15937;50.612;6.656;2024-01-27T07:49:56;10.70;;;3.80;;
26269;SDS011;15937;50.612;6.656;2024-01-27T07:53:58;20.33;;;3.50;;
26269;SDS011;15937;50.612;6.656;2024-01-27T07:58:01;17.20;;;3.55;;
26269;SDS011;15937;50.612;6.656;2024-01-27T08:02:03;19.75;;;3.42;;
26269;SDS011;15937;50.612;6.656;2024-01-27T08:06:05;23.90;;;3.73;;
26269;SDS011;15937;50.612;6.656;2024-01-27T08:10:10;20.92;;;4.40;;
26269;SDS011;15937;50.612;6.656;2024-01-27T08:14:12;23.95;;;5.50;;
26269;SDS011;15937;50.612;6.656;2024-01-27T08:18:14;25.27;;;4.50;;
26269;SDS011;15937;50.612;6.656;2024-01-27T08:22:16;20.60;;;3.53;;
26269;SDS011;15937;50.612;6.656;2024-01-27T08:26:18;15.60;;;4.10;;
26269;SDS011;15937;50.612;6.656;2024-01-27T08:30:22;13.23;;;3.17;;
26269;SDS011;15937;50.612;6.656;2024-01-27T08:34:24;16.30;;;3.37;;
26269;SDS011;15937;50.612;6.656;2024-01-27T08:38:26;19.47;;;2.90;;
26269;SDS011;15937;50.612;6.656;2024-01-27T08:42:28;14.50;;;4.17;;
26269;SDS011;15937;50.612;6.656;2024-01-27T08:46:30;14.00;;;3.50;;
26269;SDS011;15937;50.612;6.656;2024-01-27T08:50:37;20.60;;;3.60;;
26269;SDS011;15937;50.612;6.656;2024-01-27T08:54:39;10.68;;;3.65;;
26269;SDS011;15937;50.612;6.656;2024-01-27T08:58:42;21.45;;;4.25;;
26269;SDS011;15937;50.612;6.656;2024-01-27T09:02:45;17.60;;;3.60;;
26269;SDS011;15937;50.612;6.656;2024-01-27T09:06:47;14.90;;;3.83;;
26269;SDS011;15937;50.612;6.656;2024-01-27T09:10:49;17.43;;;3.80;;
26269;SDS011;15937;50.612;6.656;2024-01-27T09:14:51;14.87;;;3.20;;
26269;SDS011;15937;50.612;6.656;2024-01-27T09:18:55;16.13;;;3.22;;
26269;SDS011;15937;50.612;6.656;2024-01-27T09:22:58;11.73;;;2.53;;
26269;SDS011;15937;50.612;6.656;2024-01-27T09:26:59;15.73;;;3.20;;
26269;SDS011;15937;50.612;6.656;2024-01-27T09:31:03;13.48;;;2.58;;
26269;SDS011;15937;50.612;6.656;2024-01-27T09:35:05;15.38;;;3.30;;
26269;SDS011;15937;50.612;6.656;2024-01-27T09:39:08;24.90;;;4.37;;
26269;SDS011;15937;50.612;6.656;2024-01-27T09:43:13;17.33;;;3.90;;
26269;SDS011;15937;50.612;6.656;2024-01-27T09:47:16;17.33;;;4.40;;
26269;SDS011;15937;50.612;6.656;2024-01-27T09:51:18;11.02;;;2.72;;
26269;SDS011;15937;50.612;6.656;2024-01-27T09:55:21;15.10;;;4.38;;
26269;SDS011;15937;50.612;6.656;2024-01-27T09:59:22;18.80;;;3.03;;
26269;SDS011;15937;50.612;6.656;2024-01-27T10:03:26;16.23;;;2.63;;
26269;SDS011;15937;50.612;6.656;2024-01-27T10:07:30;16.70;;;3.42;;
26269;SDS011;15937;50.612;6.656;2024-01-27T10:11:33;9.90;;;2.78;;
26269;SDS011;15937;50.612;6.656;2024-01-27T10:15:41;7.60;;;2.63;;
26269;SDS011;15937;50.612;6.656;2024-01-27T10:23:53;20.67;;;3.85;;
26269;SDS011;15937;50.612;6.656;2024-01-27T10:27:55;8.52;;;2.90;;
26269;SDS011;15937;50.612;6.656;2024-01-27T10:36:11;10.15;;;2.72;;
26269;SDS011;15937;50.612;6.656;2024-01-27T10:40:13;11.23;;;3.97;;
26269;SDS011;15937;50.612;6.656;2024-01-27T10:44:17;12.98;;;2.97;;
26269;SDS011;15937;50.612;6.656;2024-01-27T10:48:20;12.00;;;2.67;;
26269;SDS011;15937;50.612;6.656;2024-01-27T10:52:24;13.00;;;3.35;;
26269;SDS011;15937;50.612;6.656;2024-01-27T10:56:38;14.23;;;2.63;;
26269;SDS011;15937;50.612;6.656;2024-01-27T11:00:43;10.75;;;3.00;;
26269;SDS011;15937;50.612;6.656;2024-01-27T11:04:50;10.82;;;2.28;;
26269;SDS011;15937;50.612;6.656;2024-01-27T11:08:55;12.82;;;2.55;;
26269;SDS011;15937;50.612;6.656;2024-01-27T11:12:58;12.03;;;2.73;;
26269;SDS011;15937;50.612;6.656;2024-01-27T11:17:00;10.95;;;2.65;;
26269;SDS011;15937;50.612;6.656;2024-01-27T11:21:01;11.98;;;3.40;;
26269;SDS011;15937;50.612;6.656;2024-01-27T11:25:08;13.05;;;2.67;;
26269;SDS011;15937;50.612;6.656;2024-01-27T11:29:17;12.10;;;2.85;;
26269;SDS011;15937;50.612;6.656;2024-01-27T11:33:24;14.55;;;2.60;;
26269;SDS011;15937;50.612;6.656;2024-01-27T11:37:29;14.30;;;3.60;;
26269;SDS011;15937;50.612;6.656;2024-01-27T11:41:32;20.27;;;2.50;;
26269;SDS011;15937;50.612;6.656;2024-01-27T11:45:34;13.97;;;2.50;;
26269;SDS011;15937;50.612;6.656;2024-01-27T11:49:36;7.67;;;1.97;;
26269;SDS011;15937;50.612;6.656;2024-01-27T11:53:38;10.73;;;2.17;;
26269;SDS011;15937;50.612;6.656;2024-01-27T11:57:41;14.50;;;2.90;;
26269;SDS011;15937;50.612;6.656;2024-01-27T12:01:44;15.23;;;1.88;;
26269;SDS011;15937;50.612;6.656;2024-01-27T12:05:46;9.43;;;2.40;;
26269;SDS011;15937;50.612;6.656;2024-01-27T12:09:48;9.20;;;1.90;;
26269;SDS011;15937;50.612;6.656;2024-01-27T12:13:52;14.85;;;2.70;;
26269;SDS011;15937;50.612;6.656;2024-01-27T12:17:55;13.70;;;2.65;;
26269;SDS011;15937;50.612;6.656;2024-01-27T12:21:57;11.35;;;2.63;;
26269;SDS011;15937;50.612;6.656;2024-01-27T12:25:59;13.43;;;2.50;;
26269;SDS011;15937;50.612;6.656;2024-01-27T12:30:05;9.27;;;2.23;;
26269;SDS011;15937;50.612;6.656;2024-01-27T12:34:07;9.77;;;2.17;;
26269;SDS011;15937;50.612;6.656;2024-01-27T12:38:10;13.88;;;2.25;;
26269;SDS011;15937;50.612;6.656;2024-01-27T12:42:13;18.83;;;3.85;;
26269;SDS011;15937;50.612;6.656;2024-01-27T12:46:15;14.02;;;2.60;;
26269;SDS011;15937;50.612;6.656;2024-01-27T12:50:18;13.18;;;5.28;;
26269;SDS011;15937;50.612;6.656;2024-01-27T12:54:20;8.07;;;2.37;;
26269;SDS011;15937;50.612;6.656;2024-01-27T12:58:22;7.23;;;2.30;;
26269;SDS011;15937;50.612;6.656;2024-01-27T13:02:24;10.30;;;3.13;;
26269;SDS011;15937;50.612;6.656;2024-01-27T13:06:26;8.98;;;2.45;;
26269;SDS011;15937;50.612;6.656;2024-01-27T13:10:28;14.13;;;2.65;;
26269;SDS011;15937;50.612;6.656;2024-01-27T13:14:30;12.77;;;2.78;;
26269;SDS011;15937;50.612;6.656;2024-01-27T13:18:32;7.88;;;2.28;;
26269;SDS011;15937;50.612;6.656;2024-01-27T13:22:35;16.95;;;2.65;;
26269;SDS011;15937;50.612;6.656;2024-01-27T13:26:37;17.40;;;2.80;;
26269;SDS011;15937;50.612;6.656;2024-01-27T13:30:40;14.87;;;3.17;;
26269;SDS011;15937;50.612;6.656;2024-01-27T13:34:43;12.25;;;2.60;;
26269;SDS011;15937;50.612;6.656;2024-01-27T13:38:45;10.05;;;2.88;;
26269;SDS011;15937;50.612;6.656;2024-01-27T13:42:48;7.38;;;2.47;;
26269;SDS011;15937;50.612;6.656;2024-01-27T13:46:50;14.37;;;2.63;;
26269;SDS011;15937;50.612;6.656;2024-01-27T13:50:52;11.13;;;2.20;;
26269;SDS011;15937;50.612;6.656;2024-01-27T13:54:55;8.53;;;3.00;;
26269;SDS011;15937;50.612;6.656;2024-01-27T13:58:57;8.35;;;2.35;;
26269;SDS011;15937;50.612;6.656;2024-01-27T14:02:59;10.73;;;2.67;;
26269;SDS011;15937;50.612;6.656;2024-01-27T14:07:01;7.47;;;2.00;;
26269;SDS011;15937;50.612;6.656;2024-01-27T14:11:07;17.58;;;2.83;;
26269;SDS011;15937;50.612;6.656;2024-01-27T14:15:11;10.60;;;2.28;;
26269;SDS011;15937;50.612;6.656;2024-01-27T14:19:13;9.48;;;2.53;;
26269;SDS011;15937;50.612;6.656;2024-01-27T14:23:15;9.07;;;2.13;;
26269;SDS011;15937;50.612;6.656;2024-01-27T14:27:17;7.07;;;2.60;;
26269;SDS011;15937;50.612;6.656;2024-01-27T14:31:27;10.40;;;2.00;;
26269;SDS011;15937;50.612;6.656;2024-01-27T14:35:31;14.05;;;2.78;;
26269;SDS011;15937;50.612;6.656;2024-01-27T14:39:34;7.78;;;2.22;;
26269;SDS011;15937;50.612;6.656;2024-01-27T14:43:37;12.85;;;2.60;;
26269;SDS011;15937;50.612;6.656;2024-01-27T14:47:39;11.27;;;2.35;;
26269;SDS011;15937;50.612;6.656;2024-01-27T14:51:41;11.60;;;2.25;;
26269;SDS011;15937;50.612;6.656;2024-01-27T14:55:43;11.50;;;2.25;;
26269;SDS011;15937;50.612;6.656;2024-01-27T14:59:48;9.02;;;2.35;;
26269;SDS011;15937;50.612;6.656;2024-01-27T15:03:50;15.93;;;2.38;;
26269;SDS011;15937;50.612;6.656;2024-01-27T15:07:52;10.70;;;2.00;;
26269;SDS011;15937;50.612;6.656;2024-01-27T15:11:54;10.13;;;2.30;;
26269;SDS011;15937;50.612;6.656;2024-01-27T15:15:56;4.30;;;2.10;;
26269;SDS011;15937;50.612;6.656;2024-01-27T15:19:58;14.80;;;2.60;;
26269;SDS011;15937;50.612;6.656;2024-01-27T15:24:01;15.02;;;3.10;;
26269;SDS011;15937;50.612;6.656;2024-01-27T15:28:03;18.20;;;2.97;;
26269;SDS011;15937;50.612;6.656;2024-01-27T15:32:08;17.80;;;3.78;;
26269;SDS011;15937;50.612;6.656;2024-01-27T15:36:10;18.67;;;4.90;;
26269;SDS011;15937;50.612;6.656;2024-01-27T15:40:13;16.03;;;3.70;;
26269;SDS011;15937;50.612;6.656;2024-01-27T15:44:16;9.68;;;3.10;;
26269;SDS011;15937;50.612;6.656;2024-01-27T15:48:18;29.45;;;9.57;;
26269;SDS011;15937;50.612;6.656;2024-01-27T15:52:20;21.97;;;8.47;;
26269;SDS011;15937;50.612;6.656;2024-01-27T15:56:22;13.65;;;4.07;;
26269;SDS011;15937;50.612;6.656;2024-01-27T16:00:24;10.93;;;5.10;;
26269;SDS011;15937;50.612;6.656;2024-01-27T16:04:26;13.15;;;4.43;;
26269;SDS011;15937;50.612;6.656;2024-01-27T16:08:30;14.30;;;5.50;;
26269;SDS011;15937;50.612;6.656;2024-01-27T16:12:32;17.35;;;5.28;;
26269;SDS011;15937;50.612;6.656;2024-01-27T16:16:34;15.43;;;2.80;;
26269;SDS011;15937;50.612;6.656;2024-01-27T16:20:36;14.02;;;3.67;;
26269;SDS011;15937;50.612;6.656;2024-01-27T16:24:38;8.32;;;3.22;;
26269;SDS011;15937;50.612;6.656;2024-01-27T16:28:42;19.55;;;4.75;;
26269;SDS011;15937;50.612;6.656;2024-01-27T16:32:48;22.15;;;6.25;;
26269;SDS011;15937;50.612;6.656;2024-01-27T16:36:50;17.80;;;5.45;;
26269;SDS011;15937;50.612;6.656;2024-01-27T16:40:52;22.48;;;3.65;;
26269;SDS011;15937;50.612;6.656;2024-01-27T16:44:54;18.25;;;4.32;;
26269;SDS011;15937;50.612;6.656;2024-01-27T16:48:56;18.92;;;4.90;;
26269;SDS011;15937;50.612;6.656;2024-01-27T16:52:58;27.90;;;5.00;;
26269;SDS011;15937;50.612;6.656;2024-01-27T16:57:00;11.52;;;4.43;;
26269;SDS011;15937;50.612;6.656;2024-01-27T17:01:02;18.85;;;5.05;;
26269;SDS011;15937;50.612;6.656;2024-01-27T17:05:04;20.30;;;4.93;;
26269;SDS011;15937;50.612;6.656;2024-01-27T17:09:07;28.38;;;6.55;;
26269;SDS011;15937;50.612;6.656;2024-01-27T17:13:09;24.77;;;6.82;;
26269;SDS011;15937;50.612;6.656;2024-01-27T17:17:11;19.40;;;6.00;;
26269;SDS011;15937;50.612;6.656;2024-01-27T17:21:13;20.10;;;5.70;;
26269;SDS011;15937;50.612;6.656;2024-01-27T17:25:16;18.98;;;5.20;;
26269;SDS011;15937;50.612;6.656;2024-01-27T17:29:18;20.57;;;5.63;;
26269;SDS011;15937;50.612;6.656;2024-01-27T17:33:23;34.17;;;6.63;;
26269;SDS011;15937;50.612;6.656;2024-01-27T17:41:29;22.85;;;6.78;;
26269;SDS011;15937;50.612;6.656;2024-01-27T17:45:32;24.33;;;6.90;;
26269;SDS011;15937;50.612;6.656;2024-01-27T17:49:34;24.90;;;5.88;;
26269;SDS011;15937;50.612;6.656;2024-01-27T17:53:36;17.95;;;6.88;;
26269;SDS011;15937;50.612;6.656;2024-01-27T17:57:40;24.47;;;5.53;;
26269;SDS011;15937;50.612;6.656;2024-01-27T18:01:42;21.23;;;5.07;;
26269;SDS011;15937;50.612;6.656;2024-01-27T18:05:44;19.43;;;7.37;;
26269;SDS011;15937;50.612;6.656;2024-01-27T18:09:51;114.20;;;43.95;;
26269;SDS011;15937;50.612;6.656;2024-01-27T18:13:53;108.90;;;42.50;;
26269;SDS011;15937;50.612;6.656;2024-01-27T18:17:55;76.10;;;28.45;;
26269;SDS011;15937;50.612;6.656;2024-01-27T18:21:58;42.72;;;17.58;;
26269;SDS011;15937;50.612;6.656;2024-01-27T18:26:05;33.20;;;12.88;;
26269;SDS011;15937;50.612;6.656;2024-01-27T18:30:08;34.05;;;9.98;;
26269;SDS011;15937;50.612;6.656;2024-01-27T18:34:14;57.20;;;17.08;;
26269;SDS011;15937;50.612;6.656;2024-01-27T18:38:19;31.58;;;10.05;;
26269;SDS011;15937;50.612;6.656;2024-01-27T18:42:21;32.65;;;8.85;;
26269;SDS011;15937;50.612;6.656;2024-01-27T18:46:23;37.38;;;9.10;;
26269;SDS011;15937;50.612;6.656;2024-01-27T18:50:25;29.50;;;8.60;;
26269;SDS011;15937;50.612;6.656;2024-01-27T18:54:27;39.85;;;10.85;;
26269;SDS011;15937;50.612;6.656;2024-01-27T18:58:29;25.87;;;8.90;;
26269;SDS011;15937;50.612;6.656;2024-01-27T19:02:32;29.40;;;9.73;;
26269;SDS011;15937;50.612;6.656;2024-01-27T19:06:34;39.20;;;12.10;;
26269;SDS011;15937;50.612;6.656;2024-01-27T19:10:37;37.65;;;14.90;;
26269;SDS011;15937;50.612;6.656;2024-01-27T19:14:41;47.78;;;16.23;;
26269;SDS011;15937;50.612;6.656;2024-01-27T19:18:43;46.55;;;19.13;;
26269;SDS011;15937;50.612;6.656;2024-01-27T19:22:45;27.73;;;12.45;;
26269;SDS011;15937;50.612;6.656;2024-01-27T19:26:49;25.67;;;8.90;;
26269;SDS011;15937;50.612;6.656;2024-01-27T19:30:51;19.43;;;8.00;;
26269;SDS011;15937;50.612;6.656;2024-01-27T19:34:53;25.63;;;10.33;;
26269;SDS011;15937;50.612;6.656;2024-01-27T19:38:57;42.75;;;14.75;;
26269;SDS011;15937;50.612;6.656;2024-01-27T19:42:59;10.80;;;4.15;;
26269;SDS011;15937;50.612;6.656;2024-01-27T19:47:01;19.13;;;5.10;;
26269;SDS011;15937;50.612;6.656;2024-01-27T19:51:06;10.68;;;3.75;;
26269;SDS011;15937;50.612;6.656;2024-01-27T19:55:08;7.77;;;2.53;;
26269;SDS011;15937;50.612;6.656;2024-01-27T19:59:12;41.20;;;18.80;;
26269;SDS011;15937;50.612;6.656;2024-01-27T20:03:14;33.28;;;11.23;;
26269;SDS011;15937;50.612;6.656;2024-01-27T20:07:16;27.48;;;10.90;;
26269;SDS011;15937;50.612;6.656;2024-01-27T20:11:18;24.33;;;8.48;;
26269;SDS011;15937;50.612;6.656;2024-01-27T20:15:21;26.95;;;10.43;;
26269;SDS011;15937;50.612;6.656;2024-01-27T20:19:23;27.38;;;9.80;;
26269;SDS011;15937;50.612;6.656;2024-01-27T20:23:26;18.95;;;7.78;;
26269;SDS011;15937;50.612;6.656;2024-01-27T20:27:28;29.13;;;9.73;;
26269;SDS011;15937;50.612;6.656;2024-01-27T20:31:30;26.00;;;9.23;;
26269;SDS011;15937;50.612;6.656;2024-01-27T20:35:32;28.10;;;9.23;;
26269;SDS011;15937;50.612;6.656;2024-01-27T20:39:38;24.33;;;8.27;;
26269;SDS011;15937;50.612;6.656;2024-01-27T20:43:42;30.08;;;8.30;;
26269;SDS011;15937;50.612;6.656;2024-01-27T20:47:47;19.05;;;7.10;;
26269;SDS011;15937;50.612;6.656;2024-01-27T20:51:51;17.10;;;6.55;;
26269;SDS011;15937;50.612;6.656;2024-01-27T20:55:53;17.67;;;5.70;;
26269;SDS011;15937;50.612;6.656;2024-01-27T20:59:55;18.48;;;6.65;;
26269;SDS011;15937;50.612;6.656;2024-01-27T21:03:57;24.37;;;10.53;;
26269;SDS011;15937;50.612;6.656;2024-01-27T21:07:59;26.37;;;5.90;;
26269;SDS011;15937;50.612;6.656;2024-01-27T21:12:01;17.98;;;4.55;;
26269;SDS011;15937;50.612;6.656;2024-01-27T21:16:03;21.07;;;5.47;;
26269;SDS011;15937;50.612;6.656;2024-01-27T21:20:23;12.18;;;3.80;;
26269;SDS011;15937;50.612;6.656;2024-01-27T21:24:25;14.82;;;4.18;;
26269;SDS011;15937;50.612;6.656;2024-01-27T21:28:27;10.27;;;2.90;;
26269;SDS011;15937;50.612;6.656;2024-01-27T21:32:29;13.13;;;3.03;;
26269;SDS011;15937;50.612;6.656;2024-01-27T21:36:32;11.80;;;3.07;;
26269;SDS011;15937;50.612;6.656;2024-01-27T21:40:36;11.95;;;3.08;;
26269;SDS011;15937;50.612;6.656;2024-01-27T21:44:43;18.45;;;3.67;;
26269;SDS011;15937;50.612;6.656;2024-01-27T21:48:45;21.03;;;3.53;;
26269;SDS011;15937;50.612;6.656;2024-01-27T21:52:47;9.77;;;3.97;;
26269;SDS011;15937;50.612;6.656;2024-01-27T21:56:49;9.20;;;3.25;;
26269;SDS011;15937;50.612;6.656;2024-01-27T22:00:52;11.25;;;3.60;;
26269;SDS011;15937;50.612;6.656;2024-01-27T22:04:54;11.68;;;3.60;;
26269;SDS011;15937;50.612;6.656;2024-01-27T22:08:56;5.63;;;2.30;;
26269;SDS011;15937;50.612;6.656;2024-01-27T22:12:58;16.45;;;3.67;;
26269;SDS011;15937;50.612;6.656;2024-01-27T22:17:00;14.33;;;4.87;;
26269;SDS011;15937;50.612;6.656;2024-01-27T22:21:02;38.67;;;8.63;;
26269;SDS011;15937;50.612;6.656;2024-01-27T22:25:06;92.82;;;21.73;;
26269;SDS011;15937;50.612;6.656;2024-01-27T22:29:11;22.08;;;6.72;;
26269;SDS011;15937;50.612;6.656;2024-01-27T22:33:13;22.42;;;5.68;;
26269;SDS011;15937;50.612;6.656;2024-01-27T22:37:16;14.55;;;5.28;;
26269;SDS011;15937;50.612;6.656;2024-01-27T22:41:18;10.25;;;4.68;;
26269;SDS011;15937;50.612;6.656;2024-01-27T22:45:20;20.73;;;4.50;;
26269;SDS011;15937;50.612;6.656;2024-01-27T22:49:22;12.63;;;3.88;;
26269;SDS011;15937;50.612;6.656;2024-01-27T22:53:24;15.50;;;3.83;;
26269;SDS011;15937;50.612;6.656;2024-01-27T22:57:27;10.13;;;4.30;;
26269;SDS011;15937;50.612;6.656;2024-01-27T23:01:30;12.30;;;4.43;;
26269;SDS011;15937;50.612;6.656;2024-01-27T23:05:33;18.20;;;4.15;;
26269;SDS011;15937;50.612;6.656;2024-01-27T23:09:35;12.50;;;4.43;;
26269;SDS011;15937;50.612;6.656;2024-01-27T23:13:56;17.52;;;4.65;;
26269;SDS011;15937;50.612;6.656;2024-01-27T23:18:03;11.25;;;4.00;;
26269;SDS011;15937;50.612;6.656;2024-01-27T23:26:18;12.98;;;3.85;;
26269;SDS011;15937;50.612;6.656;2024-01-27T23:30:20;11.15;;;3.72;;
26269;SDS011;15937;50.612;6.656;2024-01-27T23:34:22;10.23;;;3.88;;
26269;SDS011;15937;50.612;6.656;2024-01-27T23:38:24;19.45;;;5.32;;
26269;SDS011;15937;50.612;6.656;2024-01-27T23:42:29;22.98;;;6.32;;
26269;SDS011;15937;50.612;6.656;2024-01-27T23:46:34;20.38;;;6.47;;
26269;SDS011;15937;50.612;6.656;2024-01-27T23:50:38;27.40;;;6.30;;
26269;SDS011;15937;50.612;6.656;2024-01-27T23:54:40;18.20;;;4.10;;
26269;SDS011;15937;50.612;6.656;2024-01-27T23:58:42;18.63;;;4.60;;
